createdAt,value
2019-03-11T00:00:02.647Z,996.62
2019-03-11T00:01:14.317Z,996.58
2019-03-11T00:02:25.995Z,996.46
2019-03-11T00:03:37.682Z,996.51
2019-03-11T00:04:49.363Z,996.49
2019-03-11T00:06:00.034Z,996.50
2019-03-11T00:07:10.722Z,996.51
2019-03-11T00:08:21.475Z,996.50
2019-03-11T00:09:32.100Z,996.49
2019-03-11T00:10:43.091Z,996.49
2019-03-11T00:11:53.764Z,996.44
2019-03-11T00:13:04.432Z,996.46
2019-03-11T00:14:15.126Z,996.42
2019-03-11T00:15:25.808Z,996.45
2019-03-11T00:16:36.651Z,996.44
2019-03-11T00:17:47.337Z,996.50
2019-03-11T00:18:58.022Z,996.45
2019-03-11T00:20:08.705Z,996.45
2019-03-11T00:21:19.385Z,996.47
2019-03-11T00:22:30.074Z,996.50
2019-03-11T00:23:40.760Z,996.51
2019-03-11T00:24:51.442Z,996.46
2019-03-11T00:26:02.115Z,996.56
2019-03-11T00:27:12.799Z,996.42
2019-03-11T00:28:23.467Z,996.50
2019-03-11T00:29:34.152Z,996.45
2019-03-11T00:30:44.832Z,996.40
2019-03-11T00:31:55.507Z,996.39
2019-03-11T00:33:06.185Z,996.40
2019-03-11T00:34:16.864Z,996.39
2019-03-11T00:35:27.537Z,996.41
2019-03-11T00:36:38.222Z,996.38
2019-03-11T00:37:48.893Z,996.40
2019-03-11T00:38:59.580Z,996.47
2019-03-11T00:40:10.253Z,996.45
2019-03-11T00:41:20.936Z,996.50
2019-03-11T00:42:31.618Z,996.43
2019-03-11T00:43:42.289Z,996.40
2019-03-11T00:44:52.972Z,996.46
2019-03-11T00:46:03.653Z,996.53
2019-03-11T00:47:14.337Z,996.51
2019-03-11T00:48:25.015Z,996.54
2019-03-11T00:49:35.717Z,996.50
2019-03-11T00:50:46.391Z,996.48
2019-03-11T00:51:57.065Z,996.55
2019-03-11T00:53:07.739Z,996.57
2019-03-11T00:54:18.431Z,996.59
2019-03-11T00:55:29.106Z,996.51
2019-03-11T00:56:39.783Z,996.58
2019-03-11T00:57:50.956Z,996.53
2019-03-11T00:59:01.629Z,996.60
2019-03-11T01:00:12.315Z,996.58
2019-03-11T01:01:22.986Z,996.54
2019-03-11T01:02:33.662Z,996.60
2019-03-11T01:03:44.340Z,996.57
2019-03-11T01:04:55.026Z,996.50
2019-03-11T01:06:05.711Z,996.49
2019-03-11T01:07:16.387Z,996.43
2019-03-11T01:08:29.025Z,996.47
2019-03-11T01:09:37.754Z,996.42
2019-03-11T01:10:48.442Z,996.38
2019-03-11T01:11:59.119Z,996.36
2019-03-11T01:13:09.800Z,996.30
2019-03-11T01:14:20.695Z,996.28
2019-03-11T01:15:31.331Z,996.32
2019-03-11T01:16:42.009Z,996.27
2019-03-11T01:17:52.692Z,996.31
2019-03-11T01:19:03.365Z,996.23
2019-03-11T01:20:14.054Z,996.25
2019-03-11T01:21:24.724Z,996.23
2019-03-11T01:22:35.398Z,996.21
2019-03-11T01:23:46.073Z,996.13
2019-03-11T01:24:56.757Z,996.11
2019-03-11T01:26:07.445Z,996.05
2019-03-11T01:27:18.128Z,996.07
2019-03-11T01:28:28.816Z,996.10
2019-03-11T01:29:39.507Z,996.01
2019-03-11T01:30:50.182Z,995.96
2019-03-11T01:32:00.856Z,996.01
2019-03-11T01:33:11.551Z,995.97
2019-03-11T01:34:22.222Z,995.88
2019-03-11T01:35:32.913Z,995.91
2019-03-11T01:36:43.630Z,995.80
2019-03-11T01:37:54.264Z,995.72
2019-03-11T01:39:04.935Z,995.69
2019-03-11T01:40:15.617Z,995.68
2019-03-11T01:41:26.291Z,995.60
2019-03-11T01:42:36.974Z,995.60
2019-03-11T01:43:47.667Z,995.51
2019-03-11T01:44:58.354Z,995.52
2019-03-11T01:46:09.034Z,995.58
2019-03-11T01:47:19.731Z,995.65
2019-03-11T01:48:30.418Z,995.64
2019-03-11T01:49:41.093Z,995.59
2019-03-11T01:50:51.799Z,995.59
2019-03-11T01:52:02.541Z,995.60
2019-03-11T01:53:13.141Z,995.62
2019-03-11T01:54:23.823Z,995.54
2019-03-11T01:55:34.517Z,995.48
2019-03-11T01:56:45.183Z,995.46
2019-03-11T01:57:55.860Z,995.52
2019-03-11T01:59:06.535Z,995.54
2019-03-11T02:00:17.227Z,995.53
2019-03-11T02:01:28.421Z,995.53
2019-03-11T02:02:39.097Z,995.56
2019-03-11T02:03:49.785Z,995.52
2019-03-11T02:05:00.628Z,995.49
2019-03-11T02:06:11.317Z,995.34
2019-03-11T02:07:22.001Z,995.17
2019-03-11T02:08:32.687Z,995.16
2019-03-11T02:09:43.368Z,995.08
2019-03-11T02:10:54.051Z,994.95
2019-03-11T02:12:04.727Z,994.98
2019-03-11T02:13:15.403Z,995.01
2019-03-11T02:14:26.077Z,994.94
2019-03-11T02:15:36.761Z,994.96
2019-03-11T02:16:47.439Z,994.99
2019-03-11T02:17:58.115Z,994.92
2019-03-11T02:19:08.790Z,994.88
2019-03-11T02:20:19.471Z,994.86
2019-03-11T02:21:30.159Z,994.83
2019-03-11T02:22:40.847Z,994.80
2019-03-11T02:23:51.534Z,994.80
2019-03-11T02:25:03.206Z,994.79
2019-03-11T02:26:13.889Z,994.74
2019-03-11T02:27:24.570Z,994.73
2019-03-11T02:28:35.250Z,994.72
2019-03-11T02:29:45.929Z,994.64
2019-03-11T02:30:56.608Z,994.70
2019-03-11T02:32:07.281Z,994.64
2019-03-11T02:33:17.968Z,994.62
2019-03-11T02:34:28.637Z,994.62
2019-03-11T02:35:39.338Z,994.71
2019-03-11T02:36:50.030Z,994.64
2019-03-11T02:38:00.713Z,994.61
2019-03-11T02:39:11.391Z,994.56
2019-03-11T02:40:22.062Z,994.46
2019-03-11T02:41:33.743Z,994.53
2019-03-11T02:42:44.428Z,994.40
2019-03-11T02:43:55.102Z,994.50
2019-03-11T02:45:05.787Z,994.48
2019-03-11T02:46:16.957Z,994.38
2019-03-11T02:47:27.630Z,994.38
2019-03-11T02:48:38.311Z,994.41
2019-03-11T02:49:51.928Z,994.38
2019-03-11T02:51:02.622Z,994.44
2019-03-11T02:52:13.297Z,994.39
2019-03-11T02:53:24.481Z,994.45
2019-03-11T02:54:35.162Z,994.26
2019-03-11T02:55:45.837Z,994.23
2019-03-11T02:56:56.524Z,994.37
2019-03-11T02:58:07.203Z,994.41
2019-03-11T02:59:17.892Z,994.31
2019-03-11T03:00:28.583Z,994.30
2019-03-11T03:01:39.266Z,994.37
2019-03-11T03:02:49.956Z,994.48
2019-03-11T03:04:00.638Z,994.54
2019-03-11T03:05:11.315Z,994.71
2019-03-11T03:06:22.002Z,994.73
2019-03-11T03:07:32.686Z,995.15
2019-03-11T03:08:43.367Z,994.75
2019-03-11T03:09:54.540Z,994.95
2019-03-11T03:11:05.227Z,995.03
2019-03-11T03:12:15.916Z,995.08
2019-03-11T03:13:26.598Z,995.08
2019-03-11T03:14:37.294Z,995.08
2019-03-11T03:15:48.974Z,995.12
2019-03-11T03:17:00.661Z,995.14
2019-03-11T03:18:11.347Z,995.22
2019-03-11T03:19:22.023Z,995.11
2019-03-11T03:20:32.716Z,995.13
2019-03-11T03:21:43.403Z,995.16
2019-03-11T03:22:54.079Z,995.09
2019-03-11T03:24:04.750Z,995.17
2019-03-11T03:25:15.441Z,995.21
2019-03-11T03:26:26.122Z,995.20
2019-03-11T03:27:36.856Z,995.25
2019-03-11T03:28:47.633Z,995.21
2019-03-11T03:29:58.313Z,995.24
2019-03-11T03:31:08.997Z,995.31
2019-03-11T03:32:19.677Z,995.26
2019-03-11T03:33:30.343Z,995.28
2019-03-11T03:34:41.015Z,995.36
2019-03-11T03:35:51.692Z,995.35
2019-03-11T03:37:02.362Z,995.36
2019-03-11T03:38:13.041Z,995.37
2019-03-11T03:39:23.716Z,995.43
2019-03-11T03:40:34.383Z,995.40
2019-03-11T03:41:45.092Z,995.42
2019-03-11T03:42:55.840Z,995.36
2019-03-11T03:44:06.469Z,995.30
2019-03-11T03:45:17.072Z,995.33
2019-03-11T03:46:27.743Z,995.40
2019-03-11T03:47:38.426Z,995.38
2019-03-11T03:48:50.252Z,995.42
2019-03-11T03:50:00.748Z,995.46
2019-03-11T03:51:11.420Z,995.46
2019-03-11T03:52:22.085Z,995.48
2019-03-11T03:53:32.755Z,995.47
2019-03-11T03:54:43.917Z,995.43
2019-03-11T03:55:54.586Z,995.46
2019-03-11T03:57:05.259Z,995.48
2019-03-11T03:58:15.920Z,995.46
2019-03-11T03:59:26.604Z,995.49
2019-03-11T04:00:37.259Z,995.41
2019-03-11T04:01:47.929Z,995.50
2019-03-11T04:02:58.596Z,995.49
2019-03-11T04:04:09.256Z,995.51
2019-03-11T04:05:19.916Z,995.41
2019-03-11T04:06:31.625Z,995.42
2019-03-11T04:07:42.289Z,995.56
2019-03-11T04:08:52.952Z,995.56
2019-03-11T04:10:03.618Z,995.36
2019-03-11T04:11:14.289Z,995.35
2019-03-11T04:12:25.504Z,995.32
2019-03-11T04:13:36.128Z,995.41
2019-03-11T04:14:46.793Z,995.31
2019-03-11T04:15:57.615Z,995.34
2019-03-11T04:17:08.280Z,995.42
2019-03-11T04:18:18.947Z,995.40
2019-03-11T04:19:29.925Z,995.47
2019-03-11T04:20:40.283Z,995.39
2019-03-11T04:21:50.940Z,995.38
2019-03-11T04:23:01.601Z,995.38
2019-03-11T04:24:12.263Z,995.42
2019-03-11T04:25:22.915Z,995.50
2019-03-11T04:26:33.588Z,995.50
2019-03-11T04:27:44.244Z,995.50
2019-03-11T04:28:54.898Z,995.53
2019-03-11T04:30:05.551Z,995.72
2019-03-11T04:31:16.205Z,995.75
2019-03-11T04:32:26.857Z,995.88
2019-03-11T04:33:37.532Z,995.75
2019-03-11T04:34:48.188Z,995.80
2019-03-11T04:35:58.845Z,995.71
2019-03-11T04:37:09.524Z,995.68
2019-03-11T04:38:20.159Z,995.70
2019-03-11T04:39:30.821Z,995.71
2019-03-11T04:40:41.642Z,995.76
2019-03-11T04:41:52.794Z,995.72
2019-03-11T04:43:03.622Z,995.78
2019-03-11T04:44:14.287Z,995.66
2019-03-11T04:45:24.947Z,995.73
2019-03-11T04:46:35.606Z,995.87
2019-03-11T04:47:46.264Z,995.81
2019-03-11T04:48:56.922Z,995.92
2019-03-11T04:50:08.069Z,995.93
2019-03-11T04:51:18.731Z,995.98
2019-03-11T04:52:29.392Z,995.92
2019-03-11T04:53:40.050Z,995.96
2019-03-11T04:54:50.712Z,995.95
2019-03-11T04:56:01.373Z,995.83
2019-03-11T04:57:12.029Z,995.97
2019-03-11T04:58:22.689Z,995.89
2019-03-11T04:59:33.341Z,995.94
2019-03-11T05:00:44.002Z,996.06
2019-03-11T05:01:54.655Z,996.11
2019-03-11T05:03:05.309Z,996.16
2019-03-11T05:04:15.965Z,996.15
2019-03-11T05:05:26.626Z,996.11
2019-03-11T05:06:37.768Z,996.09
2019-03-11T05:07:48.904Z,996.09
2019-03-11T05:08:59.572Z,996.10
2019-03-11T05:10:10.239Z,995.90
2019-03-11T05:11:20.871Z,995.85
2019-03-11T05:12:31.530Z,995.86
2019-03-11T05:13:42.187Z,995.80
2019-03-11T05:14:52.839Z,995.70
2019-03-11T05:16:03.638Z,995.64
2019-03-11T05:17:14.316Z,995.69
2019-03-11T05:18:24.936Z,995.69
2019-03-11T05:19:35.579Z,995.67
2019-03-11T05:20:46.724Z,995.55
2019-03-11T05:21:57.368Z,995.58
2019-03-11T05:23:08.013Z,995.59
2019-03-11T05:24:18.671Z,995.61
2019-03-11T05:25:29.320Z,995.62
2019-03-11T05:26:39.983Z,995.65
2019-03-11T05:27:50.623Z,995.58
2019-03-11T05:29:01.274Z,995.66
2019-03-11T05:30:11.916Z,995.78
2019-03-11T05:31:22.569Z,995.85
2019-03-11T05:32:34.713Z,995.97
2019-03-11T05:33:45.359Z,995.84
2019-03-11T05:34:56.495Z,995.73
2019-03-11T05:36:07.209Z,995.73
2019-03-11T05:37:17.793Z,995.87
2019-03-11T05:38:28.437Z,995.71
2019-03-11T05:39:39.091Z,995.72
2019-03-11T05:40:50.745Z,995.68
2019-03-11T05:42:01.391Z,995.67
2019-03-11T05:43:12.534Z,995.62
2019-03-11T05:44:23.178Z,995.70
2019-03-11T05:45:34.823Z,995.53
2019-03-11T05:46:45.654Z,995.60
2019-03-11T05:47:56.790Z,995.66
2019-03-11T05:49:07.443Z,995.69
2019-03-11T05:50:18.088Z,995.54
2019-03-11T05:51:31.942Z,995.54
2019-03-11T05:52:39.886Z,995.56
2019-03-11T05:53:50.528Z,995.56
2019-03-11T05:55:01.183Z,995.58
2019-03-11T05:56:11.824Z,995.54
2019-03-11T05:57:22.486Z,995.53
2019-03-11T05:58:33.145Z,995.61
2019-03-11T05:59:43.799Z,995.54
2019-03-11T06:00:54.449Z,995.62
2019-03-11T06:02:05.635Z,995.47
2019-03-11T06:03:16.277Z,995.54
2019-03-11T06:04:27.417Z,995.48
2019-03-11T06:05:38.062Z,995.45
2019-03-11T06:06:48.709Z,995.48
2019-03-11T06:07:59.367Z,995.43
2019-03-11T06:09:10.015Z,995.39
2019-03-11T06:10:21.665Z,995.41
2019-03-11T06:11:32.309Z,995.29
2019-03-11T06:12:42.969Z,995.38
2019-03-11T06:13:53.622Z,995.37
2019-03-11T06:15:04.269Z,995.32
2019-03-11T06:16:15.406Z,995.30
2019-03-11T06:17:26.056Z,995.35
2019-03-11T06:18:37.718Z,995.39
2019-03-11T06:19:48.401Z,995.39
2019-03-11T06:20:59.019Z,995.40
2019-03-11T06:22:09.665Z,995.43
2019-03-11T06:23:20.320Z,995.39
2019-03-11T06:24:30.972Z,995.37
2019-03-11T06:25:41.629Z,995.38
2019-03-11T06:26:52.767Z,995.39
2019-03-11T06:28:03.422Z,995.41
2019-03-11T06:29:14.118Z,995.33
2019-03-11T06:30:24.771Z,995.37
2019-03-11T06:31:35.420Z,995.46
2019-03-11T06:32:46.094Z,995.39
2019-03-11T06:33:56.743Z,995.51
2019-03-11T06:35:07.394Z,995.40
2019-03-11T06:36:18.548Z,995.41
2019-03-11T06:37:29.200Z,995.36
2019-03-11T06:38:39.856Z,995.38
2019-03-11T06:39:51.006Z,995.54
2019-03-11T06:41:01.666Z,995.50
2019-03-11T06:42:12.314Z,995.45
2019-03-11T06:43:22.982Z,995.48
2019-03-11T06:44:33.616Z,995.62
2019-03-11T06:45:44.292Z,995.65
2019-03-11T06:46:54.939Z,995.75
2019-03-11T06:48:06.607Z,996.03
2019-03-11T06:49:17.758Z,996.19
2019-03-11T06:50:28.411Z,996.22
2019-03-11T06:51:39.076Z,996.23
2019-03-11T06:52:49.747Z,996.04
2019-03-11T06:54:00.375Z,995.98
2019-03-11T06:55:11.024Z,996.04
2019-03-11T06:56:21.688Z,996.05
2019-03-11T06:57:32.338Z,996.09
2019-03-11T06:58:42.994Z,996.12
2019-03-11T06:59:53.660Z,996.00
2019-03-11T07:01:05.313Z,995.98
2019-03-11T07:02:16.959Z,995.94
2019-03-11T07:03:27.617Z,995.88
2019-03-11T07:04:38.281Z,996.03
2019-03-11T07:05:48.941Z,996.02
2019-03-11T07:06:59.589Z,995.85
2019-03-11T07:08:10.246Z,996.01
2019-03-11T07:09:20.926Z,995.88
2019-03-11T07:10:31.553Z,995.84
2019-03-11T07:11:42.219Z,995.88
2019-03-11T07:12:52.875Z,995.92
2019-03-11T07:14:03.525Z,996.00
2019-03-11T07:15:14.182Z,996.00
2019-03-11T07:16:24.834Z,996.07
2019-03-11T07:17:35.512Z,996.02
2019-03-11T07:18:46.159Z,996.13
2019-03-11T07:19:57.318Z,996.13
2019-03-11T07:21:07.976Z,996.15
2019-03-11T07:22:18.636Z,996.21
2019-03-11T07:23:29.783Z,996.17
2019-03-11T07:24:40.452Z,996.20
2019-03-11T07:25:51.136Z,996.32
2019-03-11T07:27:01.798Z,996.30
2019-03-11T07:28:12.955Z,996.26
2019-03-11T07:29:23.607Z,996.46
2019-03-11T07:30:34.270Z,996.48
2019-03-11T07:31:44.929Z,996.49
2019-03-11T07:32:56.585Z,996.63
2019-03-11T07:34:07.242Z,996.56
2019-03-11T07:35:17.915Z,996.57
2019-03-11T07:36:28.582Z,996.53
2019-03-11T07:37:39.250Z,996.57
2019-03-11T07:38:49.909Z,996.56
2019-03-11T07:40:00.578Z,996.60
2019-03-11T07:41:11.258Z,996.48
2019-03-11T07:42:21.922Z,996.62
2019-03-11T07:43:32.597Z,996.55
2019-03-11T07:44:43.752Z,996.64
2019-03-11T07:45:54.443Z,996.54
2019-03-11T07:47:05.119Z,996.52
2019-03-11T07:48:15.785Z,996.51
2019-03-11T07:49:26.463Z,996.45
2019-03-11T07:50:38.132Z,996.53
2019-03-11T07:51:48.800Z,996.51
2019-03-11T07:52:59.633Z,996.50
2019-03-11T07:54:10.313Z,996.44
2019-03-11T07:55:20.990Z,996.47
2019-03-11T07:56:31.670Z,996.49
2019-03-11T07:57:42.344Z,996.41
2019-03-11T07:58:53.012Z,996.45
2019-03-11T08:00:03.693Z,996.51
2019-03-11T08:01:14.373Z,996.46
2019-03-11T08:02:25.364Z,996.48
2019-03-11T08:03:36.035Z,996.56
2019-03-11T08:04:46.708Z,996.63
2019-03-11T08:05:57.391Z,996.63
2019-03-11T08:07:09.069Z,996.63
2019-03-11T08:08:20.246Z,996.65
2019-03-11T08:09:37.939Z,996.74
2019-03-11T08:10:41.612Z,996.69
2019-03-11T08:11:52.300Z,996.70
2019-03-11T08:13:02.974Z,996.64
2019-03-11T08:14:13.663Z,996.64
2019-03-11T08:15:24.864Z,996.66
2019-03-11T08:16:35.518Z,996.65
2019-03-11T08:17:46.213Z,996.70
2019-03-11T08:18:56.896Z,996.61
2019-03-11T08:20:07.568Z,996.62
2019-03-11T08:21:18.252Z,996.65
2019-03-11T08:22:28.948Z,996.65
2019-03-11T08:23:39.642Z,996.62
2019-03-11T08:24:50.323Z,996.61
2019-03-11T08:26:01.018Z,996.57
2019-03-11T08:27:11.714Z,996.57
2019-03-11T08:28:23.391Z,996.55
2019-03-11T08:29:34.076Z,996.51
2019-03-11T08:30:44.767Z,996.54
2019-03-11T08:31:56.446Z,996.44
2019-03-11T08:33:07.138Z,996.40
2019-03-11T08:34:17.819Z,996.39
2019-03-11T08:35:28.503Z,996.42
2019-03-11T08:36:39.206Z,996.35
2019-03-11T08:37:49.907Z,996.35
2019-03-11T08:39:00.597Z,996.35
2019-03-11T08:40:11.299Z,996.34
2019-03-11T08:41:21.993Z,996.40
2019-03-11T08:42:33.712Z,996.18
2019-03-11T08:43:44.410Z,996.33
2019-03-11T08:44:55.151Z,996.21
2019-03-11T08:46:05.867Z,996.31
2019-03-11T08:47:16.589Z,996.33
2019-03-11T08:48:27.321Z,996.30
2019-03-11T08:49:38.053Z,996.43
2019-03-11T08:50:48.781Z,996.46
2019-03-11T08:51:59.514Z,996.42
2019-03-11T08:53:10.250Z,996.55
2019-03-11T08:54:20.985Z,996.33
2019-03-11T08:55:31.715Z,996.30
2019-03-11T08:56:42.445Z,996.15
2019-03-11T08:57:53.690Z,996.15
2019-03-11T08:59:04.427Z,996.12
2019-03-11T09:00:15.152Z,996.15
2019-03-11T09:01:25.888Z,996.15
2019-03-11T09:02:36.622Z,996.17
2019-03-11T09:03:48.064Z,996.17
2019-03-11T09:04:58.109Z,996.14
2019-03-11T09:06:08.843Z,996.04
2019-03-11T09:07:19.587Z,996.01
2019-03-11T09:08:30.336Z,995.83
2019-03-11T09:09:41.615Z,995.83
2019-03-11T09:10:52.358Z,995.90
2019-03-11T09:12:03.094Z,995.81
2019-03-11T09:13:13.842Z,995.84
2019-03-11T09:14:24.588Z,995.73
2019-03-11T09:15:35.326Z,995.93
2019-03-11T09:16:46.066Z,995.90
2019-03-11T09:17:56.799Z,995.84
2019-03-11T09:19:07.542Z,995.91
2019-03-11T09:20:18.278Z,995.85
2019-03-11T09:21:29.004Z,995.85
2019-03-11T09:22:39.733Z,995.93
2019-03-11T09:23:50.474Z,996.02
2019-03-11T09:25:01.201Z,995.94
2019-03-11T09:26:11.931Z,995.96
2019-03-11T09:27:22.665Z,996.01
2019-03-11T09:28:33.533Z,995.99
2019-03-11T09:29:44.136Z,996.10
2019-03-11T09:30:54.867Z,996.12
2019-03-11T09:32:05.615Z,996.08
2019-03-11T09:33:16.369Z,996.03
2019-03-11T09:34:28.145Z,996.33
2019-03-11T09:35:38.929Z,996.17
2019-03-11T09:36:49.715Z,995.91
2019-03-11T09:38:00.512Z,995.60
2019-03-11T09:39:11.348Z,995.01
2019-03-11T09:40:22.171Z,993.64
2019-03-11T09:41:33.020Z,992.38
2019-03-11T09:42:43.879Z,991.39
2019-03-11T09:43:54.752Z,991.10
2019-03-11T09:45:05.660Z,990.91
2019-03-11T09:46:16.578Z,990.55
2019-03-11T09:47:27.510Z,990.44
2019-03-11T09:48:38.945Z,990.52
2019-03-11T09:49:49.917Z,990.19
2019-03-11T09:51:00.875Z,990.57
2019-03-11T09:52:11.830Z,991.40
2019-03-11T09:53:22.789Z,992.41
2019-03-11T09:54:33.738Z,993.42
2019-03-11T09:55:44.689Z,993.94
2019-03-11T09:56:55.623Z,994.64
2019-03-11T09:58:06.540Z,995.50
2019-03-11T09:59:17.612Z,995.95
2019-03-11T10:00:28.528Z,996.29
2019-03-11T10:01:39.417Z,996.74
2019-03-11T10:02:52.912Z,996.95
2019-03-11T10:04:01.158Z,997.22
2019-03-11T10:05:12.042Z,997.08
2019-03-11T10:06:22.929Z,996.56
2019-03-11T10:07:33.819Z,996.43
2019-03-11T10:08:44.704Z,995.89
2019-03-11T10:09:55.620Z,995.38
2019-03-11T10:11:06.527Z,994.67
2019-03-11T10:12:17.440Z,993.78
2019-03-11T10:13:28.372Z,992.44
2019-03-11T10:14:39.323Z,990.91
2019-03-11T10:15:50.325Z,990.61
2019-03-11T10:17:01.302Z,990.15
2019-03-11T10:18:12.312Z,990.05
2019-03-11T10:19:23.366Z,990.13
2019-03-11T10:20:34.423Z,990.27
2019-03-11T10:21:46.516Z,990.23
2019-03-11T10:22:57.609Z,990.28
2019-03-11T10:24:08.726Z,990.14
2019-03-11T10:25:19.860Z,990.39
2019-03-11T10:26:31.012Z,990.50
2019-03-11T10:27:42.168Z,991.32
2019-03-11T10:28:53.334Z,992.28
2019-03-11T10:30:04.499Z,993.21
2019-03-11T10:31:15.693Z,993.16
2019-03-11T10:32:26.875Z,993.15
2019-03-11T10:33:38.062Z,992.71
2019-03-11T10:34:49.268Z,992.90
2019-03-11T10:36:00.469Z,992.04
2019-03-11T10:37:11.690Z,991.80
2019-03-11T10:38:22.899Z,992.12
2019-03-11T10:39:34.597Z,992.67
2019-03-11T10:40:45.782Z,993.64
2019-03-11T10:41:56.950Z,994.87
2019-03-11T10:43:08.110Z,995.86
2019-03-11T10:44:19.717Z,997.11
2019-03-11T10:45:32.174Z,997.49
2019-03-11T10:46:41.949Z,996.94
2019-03-11T10:47:53.627Z,995.89
2019-03-11T10:49:04.745Z,995.13
2019-03-11T10:50:15.893Z,994.20
2019-03-11T10:51:27.031Z,993.41
2019-03-11T10:52:38.187Z,992.79
2019-03-11T10:53:49.348Z,992.77
2019-03-11T10:55:00.511Z,993.37
2019-03-11T10:56:11.700Z,993.20
2019-03-11T10:57:22.896Z,993.15
2019-03-11T10:58:34.088Z,992.70
2019-03-11T10:59:45.289Z,992.70
2019-03-11T11:00:57.004Z,992.69
2019-03-11T11:02:08.249Z,992.48
2019-03-11T11:03:19.643Z,991.77
2019-03-11T11:04:30.901Z,991.99
2019-03-11T11:05:42.171Z,992.19
2019-03-11T11:06:53.445Z,992.29
2019-03-11T11:08:04.745Z,992.09
2019-03-11T11:09:16.034Z,992.11
2019-03-11T11:10:27.323Z,992.66
2019-03-11T11:11:38.625Z,992.47
2019-03-11T11:12:50.438Z,992.27
2019-03-11T11:14:01.757Z,991.60
2019-03-11T11:15:13.093Z,991.72
2019-03-11T11:16:24.426Z,991.84
2019-03-11T11:17:35.764Z,991.88
2019-03-11T11:18:47.092Z,991.98
2019-03-11T11:20:03.357Z,992.54
2019-03-11T11:21:09.678Z,993.42
2019-03-11T11:22:20.958Z,992.80
2019-03-11T11:23:32.207Z,992.22
2019-03-11T11:24:43.442Z,992.67
2019-03-11T11:25:54.658Z,992.84
2019-03-11T11:27:05.860Z,992.90
2019-03-11T11:28:17.064Z,992.96
2019-03-11T11:29:29.243Z,992.35
2019-03-11T11:30:40.424Z,992.03
2019-03-11T11:31:51.612Z,991.41
2019-03-11T11:33:02.827Z,991.39
2019-03-11T11:34:14.024Z,991.56
2019-03-11T11:35:25.251Z,991.68
2019-03-11T11:36:36.473Z,992.37
2019-03-11T11:37:47.711Z,992.48
2019-03-11T11:38:58.952Z,993.23
2019-03-11T11:40:10.514Z,992.65
2019-03-11T11:41:21.789Z,992.97
2019-03-11T11:42:33.076Z,993.14
2019-03-11T11:43:44.386Z,993.11
2019-03-11T11:44:55.695Z,993.29
2019-03-11T11:46:07.015Z,993.01
2019-03-11T11:47:18.361Z,993.24
2019-03-11T11:48:29.703Z,993.44
2019-03-11T11:49:41.050Z,993.77
2019-03-11T11:50:52.401Z,993.67
2019-03-11T11:52:03.756Z,992.84
2019-03-11T11:53:15.133Z,993.38
2019-03-11T11:54:26.524Z,994.12
2019-03-11T11:55:38.884Z,994.20
2019-03-11T11:56:50.251Z,994.52
2019-03-11T11:58:01.643Z,994.20
2019-03-11T11:59:13.059Z,994.01
2019-03-11T12:00:24.403Z,994.08
2019-03-11T12:01:35.792Z,993.91
2019-03-11T12:02:47.196Z,993.65
2019-03-11T12:03:58.615Z,993.37
2019-03-11T12:05:10.027Z,993.68
2019-03-11T12:06:21.448Z,993.50
2019-03-11T12:07:32.940Z,992.91
2019-03-11T12:08:44.317Z,993.67
2019-03-11T12:09:55.746Z,993.18
2019-03-11T12:11:07.176Z,993.53
2019-03-11T12:12:18.603Z,994.08
2019-03-11T12:13:30.034Z,994.34
2019-03-11T12:14:41.464Z,994.54
2019-03-11T12:15:52.894Z,994.29
2019-03-11T12:17:04.342Z,994.49
2019-03-11T12:18:15.782Z,994.75
2019-03-11T12:19:27.237Z,994.88
2019-03-11T12:20:38.679Z,994.08
2019-03-11T12:21:50.142Z,993.88
2019-03-11T12:23:01.609Z,994.00
2019-03-11T12:24:13.084Z,993.95
2019-03-11T12:25:24.584Z,994.33
2019-03-11T12:26:36.045Z,994.47
2019-03-11T12:27:53.666Z,994.31
2019-03-11T12:28:58.998Z,994.42
2019-03-11T12:30:10.489Z,994.81
2019-03-11T12:31:22.016Z,995.44
2019-03-11T12:32:33.457Z,996.37
2019-03-11T12:33:44.936Z,996.96
2019-03-11T12:34:56.443Z,997.36
2019-03-11T12:36:07.917Z,997.60
2019-03-11T12:37:19.392Z,997.83
2019-03-11T12:38:30.863Z,998.07
2019-03-11T12:39:42.330Z,997.95
2019-03-11T12:40:53.784Z,997.95
2019-03-11T12:42:05.235Z,997.85
2019-03-11T12:43:17.696Z,997.81
2019-03-11T12:44:29.148Z,997.65
2019-03-11T12:45:40.604Z,997.39
2019-03-11T12:46:52.049Z,997.37
2019-03-11T12:48:03.639Z,997.51
2019-03-11T12:49:15.076Z,997.79
2019-03-11T12:50:26.610Z,997.95
2019-03-11T12:51:48.902Z,997.93
2019-03-11T12:52:49.447Z,997.77
2019-03-11T12:54:00.844Z,997.55
2019-03-11T12:55:12.232Z,997.58
2019-03-11T12:56:23.608Z,998.11
2019-03-11T12:57:34.955Z,998.36
2019-03-11T12:58:46.276Z,998.77
2019-03-11T12:59:57.595Z,999.30
2019-03-11T13:01:08.867Z,999.81
2019-03-11T13:02:20.134Z,999.97
2019-03-11T13:03:31.405Z,999.95
2019-03-11T13:04:42.676Z,999.64
2019-03-11T13:05:53.967Z,999.16
2019-03-11T13:07:05.270Z,998.69
2019-03-11T13:08:16.561Z,998.28
2019-03-11T13:09:27.862Z,998.19
2019-03-11T13:10:39.180Z,998.11
2019-03-11T13:11:50.497Z,997.51
2019-03-11T13:13:01.827Z,997.47
2019-03-11T13:14:13.157Z,997.26
2019-03-11T13:15:24.497Z,997.15
2019-03-11T13:16:35.834Z,997.28
2019-03-11T13:17:47.162Z,997.56
2019-03-11T13:18:58.488Z,997.81
2019-03-11T13:20:09.792Z,998.01
2019-03-11T13:21:21.091Z,998.21
2019-03-11T13:22:32.354Z,998.63
2019-03-11T13:23:43.605Z,999.19
2019-03-11T13:24:54.850Z,999.58
2019-03-11T13:26:06.063Z,999.86
2019-03-11T13:27:17.273Z,1000.17
2019-03-11T13:28:29.063Z,1000.37
2019-03-11T13:29:39.634Z,1000.57
2019-03-11T13:30:50.802Z,1000.59
2019-03-11T13:32:01.973Z,1000.37
2019-03-11T13:33:13.128Z,1000.25
2019-03-11T13:34:24.265Z,1000.28
2019-03-11T13:35:35.400Z,1000.32
2019-03-11T13:36:46.524Z,1000.42
2019-03-11T13:37:57.622Z,1000.55
2019-03-11T13:39:08.718Z,1000.55
2019-03-11T13:40:19.785Z,1000.66
2019-03-11T13:41:30.848Z,1000.58
2019-03-11T13:42:41.911Z,1000.58
2019-03-11T13:43:52.976Z,1000.36
2019-03-11T13:45:04.062Z,1000.22
2019-03-11T13:46:15.111Z,999.81
2019-03-11T13:47:26.203Z,999.39
2019-03-11T13:48:37.306Z,998.96
2019-03-11T13:49:48.412Z,998.55
2019-03-11T13:50:59.541Z,998.45
2019-03-11T13:52:10.688Z,998.22
2019-03-11T13:53:22.321Z,998.10
2019-03-11T13:54:33.638Z,997.99
2019-03-11T13:55:44.806Z,998.02
2019-03-11T13:56:56.006Z,997.79
2019-03-11T13:58:07.207Z,997.66
2019-03-11T13:59:18.401Z,997.82
2019-03-11T14:00:29.660Z,997.81
2019-03-11T14:01:40.823Z,997.66
2019-03-11T14:02:52.053Z,997.59
2019-03-11T14:04:03.279Z,997.53
2019-03-11T14:05:14.511Z,997.69
2019-03-11T14:06:25.755Z,997.70
2019-03-11T14:07:37.013Z,997.73
2019-03-11T14:08:48.259Z,997.54
2019-03-11T14:09:59.509Z,997.56
2019-03-11T14:11:11.947Z,997.43
2019-03-11T14:12:23.185Z,997.43
2019-03-11T14:13:34.923Z,997.77
2019-03-11T14:14:46.138Z,998.27
2019-03-11T14:15:57.395Z,998.23
2019-03-11T14:17:08.573Z,997.96
2019-03-11T14:18:19.765Z,998.25
2019-03-11T14:19:30.938Z,998.56
2019-03-11T14:20:42.100Z,998.96
2019-03-11T14:21:55.314Z,999.39
2019-03-11T14:23:04.380Z,999.87
2019-03-11T14:24:16.002Z,1000.05
2019-03-11T14:25:27.120Z,1000.04
2019-03-11T14:26:38.246Z,1000.22
2019-03-11T14:27:49.368Z,1000.26
2019-03-11T14:29:00.488Z,1000.05
2019-03-11T14:30:11.614Z,999.89
2019-03-11T14:31:24.230Z,999.46
2019-03-11T14:32:35.363Z,999.27
2019-03-11T14:33:46.511Z,999.18
2019-03-11T14:34:57.662Z,999.00
2019-03-11T14:36:09.299Z,999.04
2019-03-11T14:37:20.455Z,998.72
2019-03-11T14:38:31.663Z,998.44
2019-03-11T14:39:42.833Z,998.22
2019-03-11T14:40:53.999Z,998.18
2019-03-11T14:42:05.186Z,998.20
2019-03-11T14:43:16.365Z,997.88